EGMC METAR and TAF | Updated Today

EGMC METAR

Southend Airport

Observation time: 20 min. ago

EGMC 070820Z 15005KT CAVOK 03/01 Q1005

Need help? Read our tutorial on how to read METARs or read the parsed version below.

Southend Airport (EGMC) METAR

  • Weather conditions on Tue, 07 Dec 2021 08:20:00 +0000 (20 min. ago):
  • Present conditions: Dry
  • Clouds: Clear skies
  • Visibility: Greater than 10 km
  • Wind: 150 degrees at 5 knots
  • Temperature: 3 celsius
  • Dew point: 1 celsius
  • Pressure: 1005 millibars
  • Remarks: None


Useful to know...

EGMC TAF

Southend Airport

TAF EGMC 070452Z 0706/0715 20006KT 9999 FEW025 BECMG 0709/0712 15015G28KT BECMG 0712/0715 16022G38KT TEMPO 0713/0715 6000 RA BKN012
Observation time: 3:48 hr. ago
Need help? Read our tutorial on how to read TAFs or read the parsed version below.

Parsed version of TAF for Southend Airport (EGMC)

  • From 07 December at 06:00 UTC, to day 07 of the month at 15:00 UTC
  • Clouds: A few at 762 meters
  • Visibility: Greater than 10 km
  • Wind: 200 degrees at 6
  • Expected to arise soon, from 07 December at 09:00 UTC, to day 07 of the month at 12:00 UTC
  • Wind: 150 degrees at 15
  • Expected to arise soon, from 07 December at 12:00 UTC, to day 07 of the month at 15:00 UTC
  • Wind: 160 degrees at 22
  • Expected to arise temporarily, from 07 December at 13:00 UTC, to day 07 of the month at 15:00 UTC
  • Clouds: Broken sky at 366 meters
  • Visibility: 6000 meters
  • Other: Rain